Time;durP1;ratioP1;P1;durP2;ratioP2;P2;SDS_P1;SDS_P2;PMS_P1;PMS_P2;Temp;Humidity;BMP_temperature;BMP_pressure;BME280_temperature;BME280_humidity;BME280_pressure;Samples;Min_cycle;Max_cycle;Signal;HPM_P1;HPM_P2
2023/05/20 03:18:25;;;;;;;11.48;5.05;;;11.20;97.80;;;;;;6237965;22;88407;-71
2023/05/20 03:20:50;;;;;;;10.93;4.90;;;11.20;98.00;;;;;;6246310;22;87679;-70
2023/05/20 03:23:16;;;;;;;9.32;5.05;;;11.20;98.10;;;;;;6248030;22;88401;-71
2023/05/20 03:25:42;;;;;;;13.23;5.43;;;11.20;97.90;;;;;;6247755;22;88253;-74
2023/05/20 03:28:07;;;;;;;12.60;5.30;;;11.30;97.80;;;;;;6236304;22;87715;-72
2023/05/20 03:30:33;;;;;;;11.38;5.32;;;11.30;97.60;;;;;;6245838;22;87346;-71
2023/05/20 03:32:58;;;;;;;11.40;5.68;;;11.40;97.50;;;;;;6243135;22;88540;-69
2023/05/20 03:35:25;;;;;;;15.48;5.20;;;11.40;97.50;;;;;;6243139;22;87968;-72
2023/05/20 03:37:52;;;;;;;10.15;4.57;;;11.40;97.40;;;;;;6248180;22;87628;-71
2023/05/20 03:40:19;;;;;;;10.27;5.05;;;11.40;97.20;;;;;;6249319;22;87317;-70
2023/05/20 03:42:45;;;;;;;13.23;5.55;;;11.40;97.10;;;;;;6239301;22;89208;-72
2023/05/20 03:45:11;;;;;;;14.30;5.68;;;11.40;97.40;;;;;;6238296;22;89612;-70
2023/05/20 03:47:36;;;;;;;10.20;5.03;;;11.40;97.50;;;;;;6249473;22;87339;-71
2023/05/20 03:50:02;;;;;;;9.88;4.88;;;11.40;97.40;;;;;;6246540;22;87242;-70
2023/05/20 03:52:28;;;;;;;9.63;5.40;;;11.50;97.20;;;;;;6244665;22;88105;-73
2023/05/20 03:54:54;;;;;;;13.52;5.82;;;11.50;97.10;;;;;;6241921;22;88830;-74
2023/05/20 03:57:19;;;;;;;12.98;5.20;;;11.60;97.10;;;;;;6248943;22;87130;-71
2023/05/20 03:59:45;;;;;;;10.05;4.80;;;11.70;97.00;;;;;;6246750;22;86498;-71
2023/05/20 04:02:11;;;;;;;11.60;5.07;;;11.80;96.40;;;;;;6240260;22;88075;-75
2023/05/20 04:04:36;;;;;;;12.65;6.05;;;11.80;96.20;;;;;;6245771;22;87599;-70
2023/05/20 04:07:03;;;;;;;9.05;4.57;;;11.90;96.90;;;;;;6237811;22;88538;-71
2023/05/20 04:09:29;;;;;;;10.82;5.13;;;12.00;96.00;;;;;;6247957;22;87198;-72
2023/05/20 04:11:55;;;;;;;9.00;4.50;;;12.30;95.60;;;;;;6246289;22;88124;-73
2023/05/20 04:14:21;;;;;;;10.40;4.95;;;12.40;94.50;;;;;;6245240;22;88087;-72
2023/05/20 04:16:49;;;;;;;9.55;5.00;;;12.50;94.30;;;;;;6238848;22;87424;-73
2023/05/20 04:19:18;;;;;;;8.63;4.88;;;12.60;94.20;;;;;;6210486;22;87533;-72
2023/05/20 04:21:44;;;;;;;9.18;4.97;;;12.70;93.90;;;;;;6216302;22;88310;-73
2023/05/20 04:24:10;;;;;;;10.65;5.00;;;12.80;93.60;;;;;;6215960;22;89173;-70
2023/05/20 04:26:36;;;;;;;10.82;4.70;;;12.90;93.50;;;;;;6216172;22;87239;-70
2023/05/20 04:29:03;;;;;;;9.68;4.70;;;12.90;93.10;;;;;;6212003;22;87441;-72
2023/05/20 04:31:29;;;;;;;12.68;4.10;;;12.90;93.00;;;;;;6204370;22;89763;-72
2023/05/20 04:33:56;;;;;;;11.70;4.88;;;12.80;92.90;;;;;;6216540;22;89168;-73
2023/05/20 04:36:27;;;;;;;11.18;5.57;;;12.70;93.10;;;;;;6216836;22;87248;-71
2023/05/20 04:38:53;;;;;;;10.07;5.32;;;12.80;93.30;;;;;;6217703;22;87382;-72
2023/05/20 04:41:19;;;;;;;11.00;5.13;;;12.90;93.20;;;;;;6217942;22;87431;-71
2023/05/20 04:43:44;;;;;;;14.32;5.45;;;12.90;93.20;;;;;;6215755;22;87919;-72
2023/05/20 04:46:10;;;;;;;8.68;4.80;;;13.00;93.30;;;;;;6219063;22;87393;-72
2023/05/20 04:48:36;;;;;;;8.55;4.70;;;13.30;92.90;;;;;;6218153;22;86847;-71
2023/05/20 04:51:02;;;;;;;7.47;4.53;;;14.00;92.10;;;;;;6218385;22;87366;-72
2023/05/20 04:53:29;;;;;;;8.65;4.18;;;14.70;90.30;;;;;;6219114;22;88094;-70
2023/05/20 04:55:55;;;;;;;12.48;4.45;;;15.50;87.80;;;;;;6218589;22;88203;-70
2023/05/20 04:58:23;;;;;;;8.48;3.92;;;15.90;85.60;;;;;;6219461;22;87410;-70
2023/05/20 05:00:50;;;;;;;7.78;3.92;;;16.40;82.90;;;;;;6218754;22;87758;-72
2023/05/20 05:03:16;;;;;;;7.00;4.18;;;17.30;79.30;;;;;;6219105;22;87880;-72
2023/05/20 05:05:42;;;;;;;7.03;3.75;;;18.20;75.70;;;;;;6219429;22;87497;-71
2023/05/20 05:08:10;;;;;;;6.13;3.33;;;19.10;71.70;;;;;;6219676;22;87328;-71
2023/05/20 05:10:36;;;;;;;5.88;3.30;;;20.00;70.70;;;;;;6219244;22;88311;-72
2023/05/20 05:13:02;;;;;;;6.65;3.83;;;21.00;67.60;;;;;;6217710;22;88138;-71
2023/05/20 05:15:27;;;;;;;7.13;4.05;;;21.40;63.50;;;;;;6216186;22;87195;-71
2023/05/20 05:17:53;;;;;;;9.50;4.03;;;21.20;62.60;;;;;;6215834;22;87508;-73
2023/05/20 05:20:19;;;;;;;8.23;3.75;;;21.10;62.80;;;;;;6211649;22;91479;-72
2023/05/20 05:22:45;;;;;;;9.73;4.15;;;21.50;63.50;;;;;;6214660;22;88365;-72
2023/05/20 05:25:12;;;;;;;14.00;4.30;;;21.70;60.90;;;;;;6219527;22;86972;-70
2023/05/20 05:27:39;;;;;;;7.03;3.65;;;21.90;61.20;;;;;;6219655;22;87548;-70
2023/05/20 05:30:06;;;;;;;6.10;3.65;;;22.50;60.00;;;;;;6217764;22;88212;-70
2023/05/20 05:32:32;;;;;;;9.00;4.07;;;23.10;59.30;;;;;;6216296;22;87642;-70
2023/05/20 05:34:58;;;;;;;6.40;3.03;;;23.50;58.30;;;;;;6214775;22;87475;-75
2023/05/20 05:37:23;;;;;;;4.82;3.20;;;23.60;56.30;;;;;;6212027;22;86887;-74
2023/05/20 05:39:49;;;;;;;6.82;3.67;;;23.90;54.80;;;;;;6214655;22;89025;-70
2023/05/20 05:42:15;;;;;;;5.80;3.05;;;23.90;55.20;;;;;;6219211;22;88482;-71
2023/05/20 05:44:40;;;;;;;7.55;3.00;;;24.40;53.30;;;;;;6218757;22;88157;-72
2023/05/20 05:47:06;;;;;;;8.88;3.20;;;24.80;53.50;;;;;;6218807;22;87415;-70
2023/05/20 05:49:32;;;;;;;6.57;2.65;;;25.40;51.40;;;;;;6218904;22;88609;-71
2023/05/20 05:51:58;;;;;;;4.97;2.67;;;25.60;50.00;;;;;;6218642;22;87772;-71
2023/05/20 05:54:24;;;;;;;4.70;2.80;;;24.60;51.00;;;;;;6219146;22;86977;-71
2023/05/20 05:56:50;;;;;;;5.30;2.58;;;23.90;52.40;;;;;;6219304;22;87459;-70
2023/05/20 05:59:16;;;;;;;4.25;2.30;;;24.20;52.70;;;;;;6217565;22;88702;-71
2023/05/20 06:01:42;;;;;;;4.43;2.72;;;24.60;52.30;;;;;;6219672;22;87588;-69
2023/05/20 06:04:11;;;;;;;4.65;2.90;;;25.10;51.40;;;;;;6218921;22;87238;-69
2023/05/20 06:06:37;;;;;;;4.50;2.83;;;25.90;50.80;;;;;;6216196;22;87422;-71
2023/05/20 06:09:03;;;;;;;4.28;2.63;;;26.60;48.70;;;;;;6213080;22;89060;-70
2023/05/20 06:11:28;;;;;;;6.30;3.00;;;27.20;47.90;;;;;;6214887;22;89177;-70
2023/05/20 06:13:54;;;;;;;7.22;3.25;;;27.30;46.70;;;;;;6217332;22;87262;-69
2023/05/20 06:16:20;;;;;;;4.50;3.00;;;27.30;46.80;;;;;;6218895;22;87443;-70
2023/05/20 06:18:46;;;;;;;4.60;3.67;;;27.40;46.50;;;;;;6218376;22;88372;-70
2023/05/20 06:21:12;;;;;;;5.13;3.03;;;27.60;46.90;;;;;;6219096;22;87279;-69
2023/05/20 06:23:37;;;;;;;6.78;3.47;;;27.80;47.20;;;;;;6219575;22;87307;-70
2023/05/20 06:26:03;;;;;;;5.63;3.20;;;27.80;46.60;;;;;;6219447;22;86600;-69
2023/05/20 06:28:29;;;;;;;5.85;3.40;;;27.80;45.60;;;;;;6217971;22;87324;-69
2023/05/20 06:30:56;;;;;;;7.60;3.70;;;28.40;45.90;;;;;;6218658;22;87788;-72
2023/05/20 06:33:26;;;;;;;7.43;3.78;;;28.90;45.60;;;;;;6218410;22;88246;-70
2023/05/20 06:35:55;;;;;;;5.07;3.00;;;29.50;43.50;;;;;;6219191;22;87271;-70
2023/05/20 06:38:21;;;;;;;5.35;3.67;;;30.60;43.50;;;;;;6218823;22;87921;-72
2023/05/20 06:40:48;;;;;;;10.30;3.85;;;31.10;41.30;;;;;;6218013;22;87454;-74
2023/05/20 06:43:15;;;;;;;8.02;4.90;;;31.40;42.30;;;;;;6219482;22;87388;-69
2023/05/20 06:45:41;;;;;;;6.55;4.38;;;32.40;40.60;;;;;;6219545;22;87155;-70
2023/05/20 06:48:07;;;;;;;9.13;4.93;;;32.90;39.80;;;;;;6218752;22;87640;-74
2023/05/20 06:50:33;;;;;;;7.82;3.65;;;32.80;40.00;;;;;;6219705;22;87389;-70
2023/05/20 06:52:58;;;;;;;6.57;4.47;;;33.10;39.90;;;;;;6219046;22;87343;-70
2023/05/20 06:55:25;;;;;;;6.35;4.22;;;34.00;39.10;;;;;;6218525;22;87368;-71
2023/05/20 06:57:50;;;;;;;5.50;4.15;;;34.90;37.90;;;;;;6217108;22;88483;-69
2023/05/20 07:00:16;;;;;;;6.82;4.47;;;35.40;37.60;;;;;;6218763;22;88652;-70
2023/05/20 07:02:42;;;;;;;6.38;4.70;;;36.00;36.80;;;;;;6218510;22;87356;-71
2023/05/20 07:05:08;;;;;;;7.53;4.32;;;36.10;36.50;;;;;;6219426;22;87353;-69
2023/05/20 07:07:34;;;;;;;6.30;4.00;;;36.40;36.50;;;;;;6218535;22;88333;-70
2023/05/20 07:10:00;;;;;;;6.93;5.00;;;36.10;35.60;;;;;;6218405;22;87721;-70
2023/05/20 07:12:26;;;;;;;7.90;4.88;;;35.90;35.80;;;;;;6219127;22;87492;-70
2023/05/20 07:14:52;;;;;;;5.68;4.32;;;35.60;36.20;;;;;;6219679;22;86879;-70
2023/05/20 07:17:19;;;;;;;4.88;3.90;;;34.70;36.70;;;;;;6217489;22;88609;-69
2023/05/20 07:19:45;;;;;;;7.40;3.95;;;34.10;37.90;;;;;;6218264;22;87857;-69
2023/05/20 07:22:11;;;;;;;5.95;3.97;;;33.50;38.60;;;;;;6218208;22;88330;-71
2023/05/20 07:24:37;;;;;;;6.35;4.53;;;34.20;38.60;;;;;;6218806;22;87442;-69
2023/05/20 07:27:03;;;;;;;5.75;4.03;;;35.20;37.50;;;;;;6218432;22;88630;-70
2023/05/20 07:29:28;;;;;;;7.13;4.05;;;35.60;36.90;;;;;;6218372;22;87887;-69
2023/05/20 07:31:54;;;;;;;5.18;4.30;;;35.70;35.90;;;;;;6218493;22;87236;-70
2023/05/20 07:34:21;;;;;;;6.80;5.03;;;35.20;36.40;;;;;;6219236;22;87078;-69
2023/05/20 07:36:47;;;;;;;8.27;4.93;;;35.30;36.20;;;;;;6218331;22;87532;-69
2023/05/20 07:39:14;;;;;;;6.57;4.20;;;35.10;36.10;;;;;;6219461;22;86654;-70
2023/05/20 07:41:40;;;;;;;7.07;4.90;;;34.80;36.80;;;;;;6218825;22;87109;-70
2023/05/20 07:44:10;;;;;;;7.50;5.05;;;35.00;36.60;;;;;;6219012;22;86995;-68
2023/05/20 07:46:37;;;;;;;5.75;4.85;;;34.50;38.00;;;;;;6217359;22;88487;-70
2023/05/20 07:49:03;;;;;;;6.65;4.47;;;33.80;38.40;;;;;;6216731;22;89514;-69
2023/05/20 07:51:30;;;;;;;5.90;4.30;;;34.10;38.60;;;;;;6216346;22;87270;-69
2023/05/20 07:53:55;;;;;;;8.00;4.70;;;34.30;38.60;;;;;;6218543;22;87466;-69
2023/05/20 07:56:21;;;;;;;8.52;5.90;;;34.90;36.70;;;;;;6217464;22;88322;-69
2023/05/20 07:58:58;;;;;;;6.25;4.40;;;34.70;37.00;;;;;;6217699;22;87476;-70
2023/05/20 08:01:25;;;;;;;7.53;3.58;;;34.30;38.00;;;;;;6218288;22;87574;-70
2023/05/20 08:03:51;;;;;;;5.13;3.60;;;34.50;38.50;;;;;;6218770;22;87631;-69
2023/05/20 08:06:19;;;;;;;6.70;4.38;;;34.40;36.90;;;;;;6218110;22;87988;-69
2023/05/20 08:08:45;;;;;;;6.10;4.80;;;34.90;37.20;;;;;;6217110;22;87806;-69
2023/05/20 08:11:11;;;;;;;7.07;4.38;;;35.30;35.50;;;;;;6218787;22;88170;-71
2023/05/20 08:13:37;;;;;;;4.93;3.83;;;35.70;37.20;;;;;;6219708;22;87075;-69
2023/05/20 08:16:04;;;;;;;6.57;3.90;;;36.60;35.90;;;;;;6218805;22;87937;-69
2023/05/20 08:18:39;;;;;;;6.90;4.20;;;37.00;35.50;;;;;;6188551;22;87751;-69
2023/05/20 08:21:08;;;;;;;6.43;5.20;;;36.20;36.00;;;;;;6188456;22;87422;-69
2023/05/20 08:23:35;;;;;;;7.45;5.20;;;36.70;36.40;;;;;;6189274;22;87204;-70
2023/05/20 08:26:02;;;;;;;7.47;4.47;;;37.50;36.00;;;;;;6188779;22;87661;-69
2023/05/20 08:28:28;;;;;;;6.22;4.30;;;38.30;35.70;;;;;;6189483;22;87012;-70
2023/05/20 08:30:54;;;;;;;5.85;4.72;;;37.60;35.70;;;;;;6189554;22;87416;-69
2023/05/20 08:33:21;;;;;;;6.03;5.30;;;38.40;34.10;;;;;;6188508;22;87281;-70
2023/05/20 08:35:47;;;;;;;7.50;4.47;;;39.10;34.50;;;;;;6188025;22;89394;-69
2023/05/20 08:38:13;;;;;;;6.00;4.68;;;38.50;34.00;;;;;;6188567;22;88617;-70
2023/05/20 08:40:39;;;;;;;6.57;4.10;;;38.00;34.20;;;;;;6189258;22;87704;-71
2023/05/20 08:43:05;;;;;;;6.97;5.97;;;36.20;34.60;;;;;;6188752;22;87051;-70
2023/05/20 08:45:32;;;;;;;5.40;4.40;;;34.60;36.30;;;;;;6188624;22;87296;-70
2023/05/20 08:47:58;;;;;;;6.90;4.10;;;33.50;36.90;;;;;;6188441;22;87967;-69
2023/05/20 08:50:24;;;;;;;5.90;4.35;;;33.10;38.80;;;;;;6189048;22;87410;-70
2023/05/20 08:52:50;;;;;;;6.30;4.20;;;32.60;38.70;;;;;;6212522;22;86579;-69
2023/05/20 08:55:37;;;;;;;5.07;3.67;;;31.80;39.90;;;;;;6220043;22;87802;-69
2023/05/20 08:58:04;;;;;;;5.43;3.45;;;31.00;41.70;;;;;;6219435;22;87679;-69
2023/05/20 09:00:30;;;;;;;6.35;4.72;;;30.40;42.50;;;;;;6219328;22;88206;-70
2023/05/20 09:02:57;;;;;;;6.65;4.32;;;29.80;42.00;;;;;;6219737;22;87220;-69
2023/05/20 09:05:23;;;;;;;5.20;3.40;;;29.60;43.00;;;;;;6219359;22;88218;-70
2023/05/20 09:07:49;;;;;;;6.13;3.47;;;29.20;43.40;;;;;;6219224;22;86965;-70
2023/05/20 09:10:15;;;;;;;6.60;3.35;;;28.50;43.90;;;;;;6219727;22;87273;-70
2023/05/20 09:12:41;;;;;;;6.60;4.10;;;28.00;45.20;;;;;;6219647;22;87277;-68
2023/05/20 09:15:07;;;;;;;6.90;4.93;;;27.60;46.40;;;;;;6219851;22;88076;-70
2023/05/20 09:17:37;;;;;;;6.63;4.15;;;27.30;46.30;;;;;;6238079;22;87942;-69
2023/05/20 09:20:09;;;;;;;5.38;2.88;;;27.20;47.20;;;;;;6250403;22;87090;-70
2023/05/20 09:22:37;;;;;;;7.40;3.72;;;27.50;47.60;;;;;;6250984;22;87401;-69
2023/05/20 09:25:04;;;;;;;6.68;3.72;;;27.30;46.90;;;;;;6249722;22;88447;-69
2023/05/20 09:27:29;;;;;;;5.85;3.65;;;27.30;48.20;;;;;;6249986;22;88655;-69
2023/05/20 09:29:55;;;;;;;5.47;3.85;;;27.50;47.90;;;;;;6250814;22;87344;-69
2023/05/20 09:32:23;;;;;;;6.38;3.83;;;28.30;46.20;;;;;;6250982;22;87557;-71
2023/05/20 09:34:49;;;;;;;7.05;4.30;;;28.80;45.40;;;;;;6250245;22;88541;-69
2023/05/20 09:37:20;;;;;;;7.70;4.13;;;28.80;45.60;;;;;;6250266;22;88201;-69
2023/05/20 09:40:20;;;;;;;6.50;5.10;;;28.60;45.10;;;;;;6250797;22;87000;-69
2023/05/20 09:43:02;;;;;;;6.38;3.92;;;28.20;46.50;;;;;;6245515;22;86765;-69
2023/05/20 09:45:29;;;;;;;7.28;3.95;;;27.80;47.00;;;;;;6250407;22;88567;-69
2023/05/20 09:47:55;;;;;;;7.93;4.20;;;27.30;47.50;;;;;;6249596;22;87454;-68
2023/05/20 09:50:23;;;;;;;9.70;4.63;;;27.00;48.80;;;;;;6250002;22;87938;-68
2023/05/20 09:52:51;;;;;;;8.15;4.70;;;27.20;49.00;;;;;;6250787;22;87621;-69
2023/05/20 09:55:18;;;;;;;9.90;4.68;;;26.70;49.50;;;;;;6250294;22;87507;-69
2023/05/20 09:57:45;;;;;;;9.45;4.10;;;27.10;49.20;;;;;;6249893;22;87855;-70
2023/05/20 10:00:13;;;;;;;7.05;4.72;;;27.70;48.90;;;;;;6250651;22;87425;-71
2023/05/20 10:02:42;;;;;;;8.75;4.80;;;27.70;48.60;;;;;;6250486;22;87524;-70
2023/05/20 10:05:23;;;;;;;9.15;5.38;;;28.30;47.00;;;;;;6249972;22;87511;-70
2023/05/20 10:07:57;;;;;;;7.22;4.38;;;27.50;47.70;;;;;;6250461;22;87443;-69
2023/05/20 10:10:25;;;;;;;10.07;4.85;;;27.40;49.00;;;;;;6250616;22;87425;-68
2023/05/20 10:13:00;;;;;;;7.97;4.30;;;27.80;48.90;;;;;;6250739;22;87903;-69
2023/05/20 10:15:56;;;;;;;8.05;5.45;;;28.30;48.40;;;;;;6249041;22;88601;-70
2023/05/20 10:18:49;;;;;;;7.13;3.90;;;28.50;47.90;;;;;;6249151;22;88516;-70
2023/05/20 10:21:16;;;;;;;8.68;4.75;;;28.00;48.20;;;;;;6250228;22;87031;-69
2023/05/20 10:23:43;;;;;;;7.07;4.60;;;27.80;48.30;;;;;;6250169;22;87740;-69
2023/05/20 10:26:08;;;;;;;10.88;4.50;;;27.60;49.50;;;;;;6250056;22;88064;-69
2023/05/20 10:28:35;;;;;;;6.78;4.50;;;27.30;49.30;;;;;;6249603;22;87749;-68
2023/05/20 10:31:02;;;;;;;8.48;4.65;;;27.10;49.80;;;;;;6249742;22;87087;-69
2023/05/20 10:33:29;;;;;;;7.63;4.68;;;27.00;50.10;;;;;;6250834;22;86614;-69
2023/05/20 10:35:59;;;;;;;10.25;5.10;;;26.90;50.10;;;;;;6249853;22;88704;-69
2023/05/20 10:38:25;;;;;;;7.47;4.18;;;26.80;49.90;;;;;;6249442;22;87478;-69
2023/05/20 10:40:51;;;;;;;8.15;4.55;;;26.50;50.40;;;;;;6249615;22;88316;-68
2023/05/20 10:43:26;;;;;;;7.03;4.25;;;26.40;51.40;;;;;;6250684;22;87446;-69
2023/05/20 10:45:55;;;;;;;7.47;4.13;;;26.20;51.70;;;;;;6250056;22;88079;-69
2023/05/20 10:48:24;;;;;;;6.90;4.18;;;26.50;51.80;;;;;;6248863;22;87250;-69
2023/05/20 10:50:50;;;;;;;;;;;26.50;51.10;;;;;;6250538;22;87692;-70
2023/05/20 10:53:16;;;;;;;8.65;4.57;;;26.40;50.30;;;;;;6251546;22;87297;-69
2023/05/20 10:55:50;;;;;;;10.65;5.07;;;26.20;50.60;;;;;;6249473;22;87434;-70
2023/05/20 10:58:17;;;;;;;6.70;3.92;;;25.90;51.00;;;;;;6249989;22;87241;-71
2023/05/20 11:00:43;;;;;;;6.85;4.72;;;25.70;53.30;;;;;;6249776;22;87432;-71
2023/05/20 11:03:10;;;;;;;7.63;4.53;;;25.30;53.10;;;;;;6249636;22;87540;-70
2023/05/20 11:05:38;;;;;;;9.15;4.50;;;25.30;53.30;;;;;;6249132;22;89247;-73
2023/05/20 11:08:08;;;;;;;7.95;4.70;;;25.60;52.90;;;;;;6249606;22;88585;-71
2023/05/20 11:10:35;;;;;;;7.43;4.32;;;25.40;52.60;;;;;;6249581;22;87344;-71
2023/05/20 11:13:02;;;;;;;7.45;4.18;;;25.30;52.50;;;;;;6250338;22;86884;-70
2023/05/20 11:15:29;;;;;;;6.95;3.83;;;25.40;53.20;;;;;;6249040;22;87867;-70
2023/05/20 11:17:58;;;;;;;10.00;4.55;;;25.40;53.30;;;;;;6248431;22;87666;-71
2023/05/20 11:20:24;;;;;;;8.52;4.60;;;25.60;53.40;;;;;;6249774;22;87276;-71
2023/05/20 11:22:51;;;;;;;6.40;3.97;;;26.00;54.00;;;;;;6250283;22;86142;-73
2023/05/20 11:25:17;;;;;;;8.18;4.07;;;26.20;52.90;;;;;;6249494;22;87957;-71
2023/05/20 11:27:44;;;;;;;8.27;4.72;;;25.90;51.50;;;;;;6249110;22;88323;-72
2023/05/20 11:30:15;;;;;;;11.48;4.45;;;25.80;53.30;;;;;;6248900;22;88443;-70
2023/05/20 11:33:07;;;;;;;10.18;4.43;;;25.70;53.20;;;;;;6248060;22;87012;-74
2023/05/20 11:35:33;;;;;;;7.78;4.45;;;25.20;53.30;;;;;;6242528;22;88007;-71
2023/05/20 11:38:08;;;;;;;8.73;4.13;;;25.40;53.70;;;;;;6248660;22;87706;-72
2023/05/20 11:40:34;;;;;;;;;;;25.30;53.50;;;;;;6250502;22;87481;-71
2023/05/20 11:43:01;;;;;;;11.35;6.10;;;25.50;53.90;;;;;;6251234;22;87481;-70
2023/05/20 11:45:37;;;;;;;6.93;3.88;;;25.30;53.40;;;;;;6248956;22;87460;-71
2023/05/20 11:48:05;;;;;;;10.45;4.22;;;25.10;54.00;;;;;;6249066;22;88746;-69
2023/05/20 11:50:39;;;;;;;7.95;4.53;;;25.30;54.10;;;;;;6249560;22;87331;-71
2023/05/20 11:53:09;;;;;;;9.82;4.63;;;25.10;55.00;;;;;;6250088;22;87017;-70
2023/05/20 11:55:49;;;;;;;9.05;3.90;;;25.00;54.80;;;;;;6248120;22;88431;-70
2023/05/20 11:58:20;;;;;;;10.68;4.07;;;25.00;54.80;;;;;;6221532;22;89965;-71
2023/05/20 12:00:46;;;;;;;8.20;4.10;;;25.00;55.00;;;;;;6249240;22;87558;-71
2023/05/20 12:03:12;;;;;;;9.57;4.55;;;24.70;54.60;;;;;;6249776;22;87440;-71
2023/05/20 12:05:38;;;;;;;8.57;3.88;;;24.80;55.90;;;;;;6248310;22;88826;-71
2023/05/20 12:08:05;;;;;;;7.75;4.15;;;24.90;56.10;;;;;;6245739;22;87138;-72
2023/05/20 12:10:30;;;;;;;9.02;4.05;;;25.20;54.40;;;;;;6246844;22;86975;-71
2023/05/20 12:12:57;;;;;;;7.07;3.67;;;25.30;56.40;;;;;;6246994;22;86279;-70
2023/05/20 12:15:23;;;;;;;8.50;4.03;;;25.70;54.70;;;;;;6246880;22;88006;-71
2023/05/20 12:17:51;;;;;;;7.05;4.40;;;25.80;54.70;;;;;;6245337;22;88112;-70
2023/05/20 12:20:20;;;;;;;8.57;4.78;;;25.70;55.20;;;;;;6245961;22;88230;-71
2023/05/20 12:22:46;;;;;;;8.20;4.50;;;25.50;55.00;;;;;;6244269;22;87469;-71
2023/05/20 12:25:14;;;;;;;8.23;4.45;;;25.60;54.30;;;;;;6246533;22;88507;-72
2023/05/20 12:27:40;;;;;;;7.45;3.92;;;25.60;54.50;;;;;;6245910;22;87802;-72
2023/05/20 12:30:08;;;;;;;8.68;4.63;;;25.80;55.40;;;;;;6246833;22;87381;-71
2023/05/20 12:32:35;;;;;;;7.82;5.55;;;26.00;55.20;;;;;;6246674;22;87622;-72
2023/05/20 12:35:01;;;;;;;7.65;4.65;;;26.00;54.20;;;;;;6246210;22;88470;-72
2023/05/20 12:37:26;;;;;;;9.13;5.22;;;26.10;54.30;;;;;;6246345;22;88170;-74
2023/05/20 12:39:52;;;;;;;6.45;4.25;;;26.10;53.70;;;;;;6246554;22;87446;-70
2023/05/20 12:42:18;;;;;;;6.60;4.07;;;26.30;54.80;;;;;;6247079;22;87340;-71
2023/05/20 12:44:44;;;;;;;7.10;4.43;;;26.40;55.00;;;;;;6217973;22;91356;-70
2023/05/20 12:47:09;;;;;;;8.30;4.22;;;26.10;54.60;;;;;;6245639;22;88786;-71
2023/05/20 12:49:35;;;;;;;8.50;4.00;;;26.00;54.90;;;;;;6246560;22;87520;-70
2023/05/20 12:52:01;;;;;;;7.82;4.63;;;26.00;54.80;;;;;;6246404;22;87369;-71
2023/05/20 12:54:27;;;;;;;10.25;4.40;;;26.30;54.70;;;;;;6245988;22;89361;-71
2023/05/20 12:56:54;;;;;;;9.15;4.43;;;26.30;53.90;;;;;;6247375;22;87277;-70
2023/05/20 12:59:20;;;;;;;6.97;4.55;;;26.60;53.80;;;;;;6247744;22;87484;-72
2023/05/20 13:01:45;;;;;;;9.15;4.97;;;26.60;53.70;;;;;;6248584;22;86850;-71
2023/05/20 13:04:11;;;;;;;7.03;4.18;;;26.60;54.30;;;;;;6247582;22;87528;-70
2023/05/20 13:06:37;;;;;;;7.93;4.65;;;26.40;53.90;;;;;;6248185;22;87883;-69
2023/05/20 13:09:03;;;;;;;8.38;4.38;;;26.30;53.30;;;;;;6248713;22;88313;-69
2023/05/20 13:11:28;;;;;;;7.95;3.92;;;26.30;54.10;;;;;;6250969;22;87383;-70
2023/05/20 13:13:56;;;;;;;9.30;4.38;;;26.10;54.50;;;;;;6249593;22;87686;-69
2023/05/20 13:16:22;;;;;;;5.82;3.55;;;25.80;56.10;;;;;;6248367;22;87726;-69
2023/05/20 13:18:48;;;;;;;6.88;3.75;;;25.80;55.70;;;;;;6249060;22;87369;-70
2023/05/20 13:21:14;;;;;;;7.25;4.63;;;25.60;55.70;;;;;;6249775;22;87343;-71
2023/05/20 13:23:40;;;;;;;7.35;3.92;;;25.50;56.50;;;;;;6249534;22;87798;-70
2023/05/20 13:26:07;;;;;;;8.07;4.18;;;25.60;55.70;;;;;;6250305;22;87175;-70
2023/05/20 13:28:33;;;;;;;8.15;4.35;;;25.60;55.80;;;;;;6249900;22;87370;-71
2023/05/20 13:31:00;;;;;;;6.70;4.03;;;25.40;56.70;;;;;;6250845;22;87299;-70
2023/05/20 13:33:26;;;;;;;7.57;4.10;;;25.40;57.40;;;;;;6249210;22;88859;-71
2023/05/20 13:35:51;;;;;;;9.90;3.72;;;25.20;56.50;;;;;;6249027;22;88319;-71
2023/05/20 13:38:17;;;;;;;7.30;3.80;;;25.20;57.10;;;;;;6248594;22;87457;-73
2023/05/20 13:40:43;;;;;;;8.68;3.58;;;25.10;57.30;;;;;;6249561;22;87301;-70
2023/05/20 13:43:08;;;;;;;7.47;4.20;;;25.30;57.70;;;;;;6249463;22;88501;-70
2023/05/20 13:45:34;;;;;;;11.48;4.53;;;25.20;56.70;;;;;;6249670;22;87226;-69
2023/05/20 13:48:00;;;;;;;9.60;4.53;;;25.30;56.40;;;;;;6250113;22;87276;-71
2023/05/20 13:50:26;;;;;;;8.60;4.13;;;25.10;57.00;;;;;;6251020;22;86296;-71
2023/05/20 13:52:52;;;;;;;7.57;4.30;;;24.80;57.40;;;;;;6250092;22;88055;-70
2023/05/20 13:55:17;;;;;;;10.38;3.35;;;24.70;57.30;;;;;;6250109;22;87171;-71
2023/05/20 13:57:43;;;;;;;7.78;3.53;;;25.00;57.80;;;;;;6249440;22;88338;-71
2023/05/20 14:00:09;;;;;;;7.00;3.88;;;25.20;57.40;;;;;;6250468;22;87436;-70
2023/05/20 14:02:35;;;;;;;8.00;3.30;;;25.30;57.60;;;;;;6249966;22;87768;-70
2023/05/20 14:05:01;;;;;;;7.25;3.38;;;25.40;56.50;;;;;;6249311;22;88832;-71
2023/05/20 14:07:27;;;;;;;10.45;4.25;;;25.40;56.60;;;;;;6249551;22;86911;-71
2023/05/20 14:09:53;;;;;;;7.13;3.75;;;25.30;55.80;;;;;;6250405;22;87278;-70
2023/05/20 14:12:18;;;;;;;6.28;3.78;;;25.30;56.60;;;;;;6249701;22;87469;-69
2023/05/20 14:14:44;;;;;;;8.27;3.22;;;25.40;55.80;;;;;;6250432;22;88227;-70
2023/05/20 14:17:10;;;;;;;7.10;3.15;;;25.30;57.10;;;;;;6250055;22;87441;-71
2023/05/20 14:19:36;;;;;;;6.30;4.15;;;25.30;56.40;;;;;;6250040;22;87318;-70
2023/05/20 14:22:02;;;;;;;4.97;2.97;;;25.20;56.80;;;;;;6249376;22;88825;-70
2023/05/20 14:24:28;;;;;;;7.00;3.50;;;25.30;57.30;;;;;;6249916;22;88727;-72
2023/05/20 14:26:54;;;;;;;6.85;4.68;;;25.40;56.00;;;;;;6250002;22;87517;-71
2023/05/20 14:29:19;;;;;;;9.25;4.57;;;25.40;55.60;;;;;;6250087;22;87282;-71
2023/05/20 14:31:45;;;;;;;8.73;3.58;;;25.50;55.70;;;;;;6249277;22;87327;-70
2023/05/20 14:34:11;;;;;;;8.82;3.55;;;25.40;55.70;;;;;;6249408;22;87337;-70
2023/05/20 14:36:36;;;;;;;6.53;3.15;;;25.30;55.90;;;;;;6250237;22;87320;-71
2023/05/20 14:39:02;;;;;;;4.85;3.30;;;25.30;56.40;;;;;;6250060;22;86159;-70
2023/05/20 14:41:28;;;;;;;6.90;3.38;;;25.20;57.00;;;;;;6249673;22;87479;-71
2023/05/20 14:43:54;;;;;;;7.75;3.90;;;24.90;57.00;;;;;;6249458;22;87317;-70
2023/05/20 14:46:20;;;;;;;8.13;3.95;;;25.10;56.40;;;;;;6248946;22;88089;-70
2023/05/20 14:48:46;;;;;;;5.85;3.53;;;25.10;56.10;;;;;;6250234;22;87423;-70
2023/05/20 14:51:12;;;;;;;7.40;3.30;;;25.00;57.40;;;;;;6249664;22;88273;-70
2023/05/20 14:53:37;;;;;;;7.28;3.28;;;25.00;57.10;;;;;;6243347;22;87939;-73
2023/05/20 14:56:04;;;;;;;6.20;3.90;;;25.00;56.90;;;;;;6246608;22;87566;-68
2023/05/20 14:58:30;;;;;;;6.72;3.20;;;24.90;56.90;;;;;;6219917;22;87498;-69
2023/05/20 15:00:56;;;;;;;6.82;3.60;;;25.00;57.60;;;;;;6219925;22;90148;-69
2023/05/20 15:03:26;;;;;;;5.72;3.45;;;24.70;57.50;;;;;;6247830;22;87476;-70
2023/05/20 15:05:52;;;;;;;6.82;3.05;;;24.80;58.00;;;;;;6249600;22;87837;-71
2023/05/20 15:08:18;;;;;;;8.65;3.80;;;24.80;57.60;;;;;;6249236;22;87593;-70
2023/05/20 15:10:43;;;;;;;5.45;3.05;;;24.90;57.40;;;;;;6247574;22;89055;-70
2023/05/20 15:13:09;;;;;;;5.88;3.47;;;24.90;57.30;;;;;;6246838;22;88733;-70
2023/05/20 15:15:35;;;;;;;5.68;3.10;;;25.00;57.30;;;;;;6246792;22;87393;-71
2023/05/20 15:18:00;;;;;;;5.47;3.42;;;25.00;57.90;;;;;;6246666;22;87320;-71
2023/05/20 15:20:26;;;;;;;6.35;3.03;;;25.10;57.40;;;;;;6246621;22;87986;-70
2023/05/20 15:22:53;;;;;;;7.72;3.45;;;25.10;57.80;;;;;;6247617;22;87904;-70
2023/05/20 15:25:18;;;;;;;7.70;3.28;;;24.90;57.40;;;;;;6247964;22;87356;-72
2023/05/20 15:27:44;;;;;;;6.40;3.20;;;24.90;57.30;;;;;;6250614;22;86485;-70
2023/05/20 15:30:10;;;;;;;5.95;3.40;;;24.90;57.40;;;;;;6248465;22;87606;-70
2023/05/20 15:32:36;;;;;;;6.43;3.13;;;25.00;57.40;;;;;;6249534;22;87757;-71
2023/05/20 15:35:03;;;;;;;7.45;3.22;;;24.90;57.80;;;;;;6248448;22;88222;-70
2023/05/20 15:37:28;;;;;;;6.22;3.50;;;24.80;58.00;;;;;;6249119;22;87506;-70
2023/05/20 15:39:54;;;;;;;6.72;3.72;;;24.80;58.10;;;;;;6245500;22;87817;-71
2023/05/20 15:42:20;;;;;;;5.53;3.33;;;25.00;57.90;;;;;;6246976;22;88767;-70
2023/05/20 15:44:46;;;;;;;5.93;3.40;;;25.00;57.40;;;;;;6246589;22;87236;-70
2023/05/20 15:47:12;;;;;;;6.15;4.05;;;24.90;58.10;;;;;;6246789;22;87215;-71
2023/05/20 15:49:38;;;;;;;6.32;3.60;;;24.80;58.00;;;;;;6247385;22;88347;-70
2023/05/20 15:52:04;;;;;;;6.15;3.67;;;25.00;57.70;;;;;;6248922;22;87521;-71
2023/05/20 15:54:30;;;;;;;5.82;3.63;;;24.90;57.50;;;;;;6248836;22;87824;-69
2023/05/20 15:56:56;;;;;;;5.55;3.35;;;25.00;57.60;;;;;;6249525;22;87345;-71
2023/05/20 15:59:22;;;;;;;6.88;2.88;;;25.00;57.70;;;;;;6248057;22;89248;-71
2023/05/20 16:01:48;;;;;;;5.55;2.83;;;25.10;57.20;;;;;;6245810;22;89087;-70